Etusivu
METAR-TAF:

METAR-TAF

Lentoasemat :

Amman, Jordania

Leveyspiiri: 31-59N, Pituuspiiri: 035-59E, korkeus merenpinnasta: 767 m

Tämänhetkinen sää

Tämä raportti tehtiin 50 minuuttia sitten, kello 21.00 UTC
tyyntä
Lämpötila 12°C
Kosteus 35%
Ilmanpaine 1022 hPa
Näkyvyys: 5000 m
usvaa

METAR: OJAM 122100Z 00000KT 5000 HZ NSC 12/M03 Q1022 NOSIG

Aika: 23:50 (21:50 UTC)

Sääennuste

Tämä raportti tehtiin 5 tuntia ja 0 minuuttia sitten, kello 16.50 UTC
Ennuste voimassa 12. päivästä klo 18 UTC - 13. päivään klo 24 UTC
Tuuli 2 kn eri suunnista
Näkyvyys: 4000 m
usvaa
Tulossa
13. päivästä klo 07 UTC - 13. päivään klo 09 UTC
Tuuli 12 kn lännestä/luoteesta
Muutamia pilviä 3000 ft:n korkeudessa

TAF: OJAM 121650Z 1218/1324 VRB02KT 4000 HZ NSC BECMG 1307/1309 29012KT FEW030

Säähavainnot ja -ennusteet yli 4000 lentoasemalta (METAR- ja TAF-raportit).

Käytössä olevat sääasemat on merkitty karttaan keltaisilla ja punaisilla pisteillä.

Aseta hiiri pisteen päälle nähdäksesi sääaseman nimen.

Klikkaa sitten nähdäksesi säähavainnot ja -ennusteet.

Kartan vaihtaminen: klikkaa mustalla rastilla varustettuja vihreitä pisteitä, niin voit zoomata sisään; viivalla varustettua vihreää pistettä, niin voit zoomata ulos tai vihreitä nuolia, niin pääset viereisille kartoille.


METAR-TAF: